sensor_id;sensor_type;location;lat;lon;timestamp;P1;durP1;ratioP1;P2;durP2;ratioP2
1404;SDS011;697;51.114;6.542;2022-11-15T00:00:16;11.07;;;9.70;;
1404;SDS011;697;51.114;6.542;2022-11-15T00:02:44;11.97;;;10.70;;
1404;SDS011;697;51.114;6.542;2022-11-15T00:05:11;13.20;;;10.97;;
1404;SDS011;697;51.114;6.542;2022-11-15T00:07:38;12.70;;;10.63;;
1404;SDS011;697;51.114;6.542;2022-11-15T00:10:05;11.70;;;10.43;;
1404;SDS011;697;51.114;6.542;2022-11-15T00:12:32;12.27;;;11.07;;
1404;SDS011;697;51.114;6.542;2022-11-15T00:14:59;13.30;;;10.27;;
1404;SDS011;697;51.114;6.542;2022-11-15T00:17:25;11.27;;;10.07;;
1404;SDS011;697;51.114;6.542;2022-11-15T00:19:53;9.97;;;8.70;;
1404;SDS011;697;51.114;6.542;2022-11-15T00:22:20;12.43;;;11.13;;
1404;SDS011;697;51.114;6.542;2022-11-15T00:24:47;11.13;;;9.97;;
1404;SDS011;697;51.114;6.542;2022-11-15T00:27:14;12.40;;;10.10;;
1404;SDS011;697;51.114;6.542;2022-11-15T00:29:40;12.63;;;10.50;;
1404;SDS011;697;51.114;6.542;2022-11-15T00:32:08;12.80;;;9.00;;
1404;SDS011;697;51.114;6.542;2022-11-15T00:34:35;10.90;;;9.50;;
1404;SDS011;697;51.114;6.542;2022-11-15T00:37:03;13.53;;;11.20;;
1404;SDS011;697;51.114;6.542;2022-11-15T00:39:31;11.43;;;10.10;;
1404;SDS011;697;51.114;6.542;2022-11-15T00:41:58;13.50;;;10.50;;
1404;SDS011;697;51.114;6.542;2022-11-15T00:44:25;10.67;;;9.57;;
1404;SDS011;697;51.114;6.542;2022-11-15T00:46:51;14.00;;;10.10;;
1404;SDS011;697;51.114;6.542;2022-11-15T00:49:18;16.00;;;10.43;;
1404;SDS011;697;51.114;6.542;2022-11-15T00:51:45;13.20;;;11.80;;
1404;SDS011;697;51.114;6.542;2022-11-15T00:54:13;13.70;;;10.87;;
1404;SDS011;697;51.114;6.542;2022-11-15T00:56:40;10.63;;;9.40;;
1404;SDS011;697;51.114;6.542;2022-11-15T00:59:06;11.13;;;9.93;;
1404;SDS011;697;51.114;6.542;2022-11-15T01:01:33;12.47;;;10.60;;
1404;SDS011;697;51.114;6.542;2022-11-15T01:04:00;10.93;;;9.80;;
1404;SDS011;697;51.114;6.542;2022-11-15T01:06:27;10.83;;;9.60;;
1404;SDS011;697;51.114;6.542;2022-11-15T01:08:53;15.90;;;13.60;;
1404;SDS011;697;51.114;6.542;2022-11-15T01:11:21;12.93;;;10.50;;
1404;SDS011;697;51.114;6.542;2022-11-15T01:13:48;11.63;;;9.13;;
1404;SDS011;697;51.114;6.542;2022-11-15T01:16:16;10.83;;;9.60;;
1404;SDS011;697;51.114;6.542;2022-11-15T01:18:44;10.67;;;9.40;;
1404;SDS011;697;51.114;6.542;2022-11-15T01:21:12;10.43;;;8.67;;
1404;SDS011;697;51.114;6.542;2022-11-15T01:23:40;13.97;;;9.67;;
1404;SDS011;697;51.114;6.542;2022-11-15T01:26:08;10.83;;;9.37;;
1404;SDS011;697;51.114;6.542;2022-11-15T01:28:39;11.90;;;10.60;;
1404;SDS011;697;51.114;6.542;2022-11-15T01:31:08;11.57;;;10.00;;
1404;SDS011;697;51.114;6.542;2022-11-15T01:33:37;10.17;;;9.23;;
1404;SDS011;697;51.114;6.542;2022-11-15T01:36:04;10.87;;;9.50;;
1404;SDS011;697;51.114;6.542;2022-11-15T01:38:32;9.60;;;8.27;;
1404;SDS011;697;51.114;6.542;2022-11-15T01:40:59;11.90;;;9.50;;
1404;SDS011;697;51.114;6.542;2022-11-15T01:43:26;13.93;;;9.07;;
1404;SDS011;697;51.114;6.542;2022-11-15T01:45:56;10.90;;;9.80;;
1404;SDS011;697;51.114;6.542;2022-11-15T01:48:30;10.53;;;8.67;;
1404;SDS011;697;51.114;6.542;2022-11-15T01:50:59;10.07;;;8.90;;
1404;SDS011;697;51.114;6.542;2022-11-15T01:53:28;10.90;;;9.30;;
1404;SDS011;697;51.114;6.542;2022-11-15T01:55:57;11.53;;;10.00;;
1404;SDS011;697;51.114;6.542;2022-11-15T01:58:24;12.03;;;8.80;;
1404;SDS011;697;51.114;6.542;2022-11-15T02:00:51;10.93;;;8.93;;
1404;SDS011;697;51.114;6.542;2022-11-15T02:03:19;10.67;;;9.33;;
1404;SDS011;697;51.114;6.542;2022-11-15T02:05:52;12.50;;;8.50;;
1404;SDS011;697;51.114;6.542;2022-11-15T02:08:19;9.17;;;8.27;;
1404;SDS011;697;51.114;6.542;2022-11-15T02:10:46;11.63;;;9.27;;
1404;SDS011;697;51.114;6.542;2022-11-15T02:13:13;11.17;;;8.90;;
1404;SDS011;697;51.114;6.542;2022-11-15T02:15:42;11.47;;;8.43;;
1404;SDS011;697;51.114;6.542;2022-11-15T02:18:21;11.50;;;9.30;;
1404;SDS011;697;51.114;6.542;2022-11-15T02:20:54;10.80;;;9.40;;
1404;SDS011;697;51.114;6.542;2022-11-15T02:23:52;10.97;;;8.47;;
1404;SDS011;697;51.114;6.542;2022-11-15T02:26:42;10.33;;;8.50;;
1404;SDS011;697;51.114;6.542;2022-11-15T02:30:00;10.57;;;9.37;;
1404;SDS011;697;51.114;6.542;2022-11-15T02:32:40;12.07;;;10.47;;
1404;SDS011;697;51.114;6.542;2022-11-15T02:35:13;10.80;;;9.70;;
1404;SDS011;697;51.114;6.542;2022-11-15T02:37:50;11.03;;;9.80;;
1404;SDS011;697;51.114;6.542;2022-11-15T02:40:23;11.10;;;9.77;;
1404;SDS011;697;51.114;6.542;2022-11-15T02:43:00;11.83;;;9.03;;
1404;SDS011;697;51.114;6.542;2022-11-15T02:45:53;12.00;;;9.70;;
1404;SDS011;697;51.114;6.542;2022-11-15T02:48:25;11.57;;;9.83;;
1404;SDS011;697;51.114;6.542;2022-11-15T02:50:52;11.17;;;8.67;;
1404;SDS011;697;51.114;6.542;2022-11-15T02:53:23;11.83;;;9.83;;
1404;SDS011;697;51.114;6.542;2022-11-15T02:55:50;11.57;;;9.43;;
1404;SDS011;697;51.114;6.542;2022-11-15T02:58:22;10.87;;;8.90;;
1404;SDS011;697;51.114;6.542;2022-11-15T03:01:19;9.57;;;8.40;;
1404;SDS011;697;51.114;6.542;2022-11-15T03:03:58;11.93;;;8.53;;
1404;SDS011;697;51.114;6.542;2022-11-15T03:06:32;10.37;;;9.30;;
1404;SDS011;697;51.114;6.542;2022-11-15T03:09:07;8.23;;;7.40;;
1404;SDS011;697;51.114;6.542;2022-11-15T03:11:37;11.00;;;8.67;;
1404;SDS011;697;51.114;6.542;2022-11-15T03:14:13;9.23;;;8.23;;
1404;SDS011;697;51.114;6.542;2022-11-15T03:16:49;8.30;;;7.20;;
1404;SDS011;697;51.114;6.542;2022-11-15T03:19:26;8.20;;;7.37;;
1404;SDS011;697;51.114;6.542;2022-11-15T03:21:59;9.23;;;8.20;;
1404;SDS011;697;51.114;6.542;2022-11-15T03:24:29;13.60;;;7.47;;
1404;SDS011;697;51.114;6.542;2022-11-15T03:26:58;12.30;;;8.67;;
1404;SDS011;697;51.114;6.542;2022-11-15T03:29:27;7.73;;;6.90;;
1404;SDS011;697;51.114;6.542;2022-11-15T03:32:00;8.27;;;7.30;;
1404;SDS011;697;51.114;6.542;2022-11-15T03:34:33;10.83;;;8.70;;
1404;SDS011;697;51.114;6.542;2022-11-15T03:37:03;8.53;;;7.47;;
1404;SDS011;697;51.114;6.542;2022-11-15T03:39:31;8.87;;;7.23;;
1404;SDS011;697;51.114;6.542;2022-11-15T03:42:02;11.37;;;8.70;;
1404;SDS011;697;51.114;6.542;2022-11-15T03:44:37;7.13;;;6.27;;
1404;SDS011;697;51.114;6.542;2022-11-15T03:47:11;10.77;;;6.43;;
1404;SDS011;697;51.114;6.542;2022-11-15T03:49:43;7.60;;;6.90;;
1404;SDS011;697;51.114;6.542;2022-11-15T03:52:12;8.67;;;7.80;;
1404;SDS011;697;51.114;6.542;2022-11-15T03:54:50;7.77;;;7.00;;
1404;SDS011;697;51.114;6.542;2022-11-15T03:57:18;6.80;;;6.20;;
1404;SDS011;697;51.114;6.542;2022-11-15T03:59:45;7.17;;;6.57;;
1404;SDS011;697;51.114;6.542;2022-11-15T04:02:13;6.97;;;6.27;;
1404;SDS011;697;51.114;6.542;2022-11-15T04:04:40;7.90;;;6.50;;
1404;SDS011;697;51.114;6.542;2022-11-15T04:07:07;8.10;;;5.73;;
1404;SDS011;697;51.114;6.542;2022-11-15T04:09:33;6.60;;;6.00;;
1404;SDS011;697;51.114;6.542;2022-11-15T04:12:21;7.73;;;6.93;;
1404;SDS011;697;51.114;6.542;2022-11-15T04:14:55;8.00;;;5.17;;
1404;SDS011;697;51.114;6.542;2022-11-15T04:17:34;4.77;;;4.30;;
1404;SDS011;697;51.114;6.542;2022-11-15T04:20:02;6.67;;;4.70;;
1404;SDS011;697;51.114;6.542;2022-11-15T04:22:47;7.33;;;6.63;;
1404;SDS011;697;51.114;6.542;2022-11-15T04:25:31;6.10;;;5.00;;
1404;SDS011;697;51.114;6.542;2022-11-15T04:27:59;4.53;;;4.13;;
1404;SDS011;697;51.114;6.542;2022-11-15T04:30:26;5.93;;;4.40;;
1404;SDS011;697;51.114;6.542;2022-11-15T04:32:54;5.00;;;4.50;;
1404;SDS011;697;51.114;6.542;2022-11-15T04:35:20;4.83;;;4.37;;
1404;SDS011;697;51.114;6.542;2022-11-15T04:37:47;4.40;;;4.00;;
1404;SDS011;697;51.114;6.542;2022-11-15T04:40:13;5.40;;;4.90;;
1404;SDS011;697;51.114;6.542;2022-11-15T04:42:40;8.63;;;4.87;;
1404;SDS011;697;51.114;6.542;2022-11-15T04:45:08;6.00;;;4.77;;
1404;SDS011;697;51.114;6.542;2022-11-15T04:47:35;5.30;;;4.80;;
1404;SDS011;697;51.114;6.542;2022-11-15T04:50:04;4.70;;;3.83;;
1404;SDS011;697;51.114;6.542;2022-11-15T04:52:32;5.50;;;4.10;;
1404;SDS011;697;51.114;6.542;2022-11-15T04:54:58;5.97;;;4.00;;
1404;SDS011;697;51.114;6.542;2022-11-15T04:57:25;5.67;;;4.47;;
1404;SDS011;697;51.114;6.542;2022-11-15T04:59:52;3.30;;;3.10;;
1404;SDS011;697;51.114;6.542;2022-11-15T05:02:18;4.23;;;3.83;;
1404;SDS011;697;51.114;6.542;2022-11-15T05:04:45;3.40;;;3.10;;
1404;SDS011;697;51.114;6.542;2022-11-15T05:07:12;4.17;;;3.50;;
1404;SDS011;697;51.114;6.542;2022-11-15T05:09:39;3.27;;;3.03;;
1404;SDS011;697;51.114;6.542;2022-11-15T05:12:05;3.20;;;2.90;;
1404;SDS011;697;51.114;6.542;2022-11-15T05:14:32;2.80;;;2.60;;
1404;SDS011;697;51.114;6.542;2022-11-15T05:16:59;3.43;;;3.13;;
1404;SDS011;697;51.114;6.542;2022-11-15T05:19:26;4.07;;;3.10;;
1404;SDS011;697;51.114;6.542;2022-11-15T05:21:53;3.30;;;3.00;;
1404;SDS011;697;51.114;6.542;2022-11-15T05:24:21;3.00;;;2.80;;
1404;SDS011;697;51.114;6.542;2022-11-15T05:26:48;5.40;;;3.70;;
1404;SDS011;697;51.114;6.542;2022-11-15T05:29:14;3.73;;;3.43;;
1404;SDS011;697;51.114;6.542;2022-11-15T05:31:41;2.60;;;2.47;;
1404;SDS011;697;51.114;6.542;2022-11-15T05:34:08;4.17;;;3.40;;
1404;SDS011;697;51.114;6.542;2022-11-15T05:36:36;3.90;;;3.17;;
1404;SDS011;697;51.114;6.542;2022-11-15T05:39:05;6.20;;;3.57;;
1404;SDS011;697;51.114;6.542;2022-11-15T05:41:34;3.63;;;2.90;;
1404;SDS011;697;51.114;6.542;2022-11-15T05:44:04;5.27;;;2.97;;
1404;SDS011;697;51.114;6.542;2022-11-15T05:46:33;5.47;;;3.00;;
1404;SDS011;697;51.114;6.542;2022-11-15T05:49:01;5.60;;;2.97;;
1404;SDS011;697;51.114;6.542;2022-11-15T05:51:30;7.33;;;3.23;;
1404;SDS011;697;51.114;6.542;2022-11-15T05:53:57;5.83;;;3.27;;
1404;SDS011;697;51.114;6.542;2022-11-15T05:56:25;4.90;;;3.43;;
1404;SDS011;697;51.114;6.542;2022-11-15T05:58:54;5.67;;;3.30;;
1404;SDS011;697;51.114;6.542;2022-11-15T06:01:21;3.37;;;2.20;;
1404;SDS011;697;51.114;6.542;2022-11-15T06:03:48;3.07;;;2.77;;
1404;SDS011;697;51.114;6.542;2022-11-15T06:06:15;3.53;;;3.20;;
1404;SDS011;697;51.114;6.542;2022-11-15T06:08:41;2.33;;;1.97;;
1404;SDS011;697;51.114;6.542;2022-11-15T06:11:08;3.40;;;2.00;;
1404;SDS011;697;51.114;6.542;2022-11-15T06:13:35;2.63;;;2.20;;
1404;SDS011;697;51.114;6.542;2022-11-15T06:16:03;2.80;;;2.43;;
1404;SDS011;697;51.114;6.542;2022-11-15T06:18:31;2.17;;;1.97;;
1404;SDS011;697;51.114;6.542;2022-11-15T06:20:59;2.70;;;2.50;;
1404;SDS011;697;51.114;6.542;2022-11-15T06:23:26;4.40;;;2.50;;
1404;SDS011;697;51.114;6.542;2022-11-15T06:25:53;6.50;;;2.13;;
1404;SDS011;697;51.114;6.542;2022-11-15T06:28:23;4.40;;;2.00;;
1404;SDS011;697;51.114;6.542;2022-11-15T06:30:50;4.13;;;2.60;;
1404;SDS011;697;51.114;6.542;2022-11-15T06:33:18;2.03;;;1.80;;
1404;SDS011;697;51.114;6.542;2022-11-15T06:35:44;2.50;;;1.73;;
1404;SDS011;697;51.114;6.542;2022-11-15T06:38:11;2.70;;;1.77;;
1404;SDS011;697;51.114;6.542;2022-11-15T06:40:38;1.73;;;1.60;;
1404;SDS011;697;51.114;6.542;2022-11-15T06:43:06;1.93;;;1.40;;
1404;SDS011;697;51.114;6.542;2022-11-15T06:45:33;1.53;;;1.43;;
1404;SDS011;697;51.114;6.542;2022-11-15T06:48:00;2.33;;;1.67;;
1404;SDS011;697;51.114;6.542;2022-11-15T06:50:28;3.63;;;1.80;;
1404;SDS011;697;51.114;6.542;2022-11-15T06:52:55;1.67;;;1.30;;
1404;SDS011;697;51.114;6.542;2022-11-15T06:55:26;1.50;;;1.33;;
1404;SDS011;697;51.114;6.542;2022-11-15T06:57:52;1.60;;;1.40;;
1404;SDS011;697;51.114;6.542;2022-11-15T07:00:20;5.20;;;2.10;;
1404;SDS011;697;51.114;6.542;2022-11-15T07:02:47;3.43;;;2.00;;
1404;SDS011;697;51.114;6.542;2022-11-15T07:05:14;2.00;;;1.80;;
1404;SDS011;697;51.114;6.542;2022-11-15T07:07:43;1.90;;;1.70;;
1404;SDS011;697;51.114;6.542;2022-11-15T07:10:16;2.13;;;1.70;;
1404;SDS011;697;51.114;6.542;2022-11-15T07:12:46;3.40;;;1.57;;
1404;SDS011;697;51.114;6.542;2022-11-15T07:15:13;4.10;;;1.30;;
1404;SDS011;697;51.114;6.542;2022-11-15T07:17:40;3.87;;;1.60;;
1404;SDS011;697;51.114;6.542;2022-11-15T07:20:07;3.47;;;1.57;;
1404;SDS011;697;51.114;6.542;2022-11-15T07:22:34;1.53;;;1.33;;
1404;SDS011;697;51.114;6.542;2022-11-15T07:25:02;0.67;;;0.67;;
1404;SDS011;697;51.114;6.542;2022-11-15T07:27:29;2.40;;;1.13;;
1404;SDS011;697;51.114;6.542;2022-11-15T07:29:56;1.13;;;0.93;;
1404;SDS011;697;51.114;6.542;2022-11-15T07:32:23;2.10;;;1.00;;
1404;SDS011;697;51.114;6.542;2022-11-15T07:34:50;2.40;;;0.67;;
1404;SDS011;697;51.114;6.542;2022-11-15T07:37:16;1.53;;;0.90;;
1404;SDS011;697;51.114;6.542;2022-11-15T07:39:43;1.83;;;0.80;;
1404;SDS011;697;51.114;6.542;2022-11-15T07:42:11;1.30;;;0.67;;
1404;SDS011;697;51.114;6.542;2022-11-15T07:44:55;1.97;;;1.60;;
1404;SDS011;697;51.114;6.542;2022-11-15T07:47:22;2.77;;;1.40;;
1404;SDS011;697;51.114;6.542;2022-11-15T07:49:49;3.47;;;1.73;;
1404;SDS011;697;51.114;6.542;2022-11-15T07:52:17;3.93;;;2.20;;
1404;SDS011;697;51.114;6.542;2022-11-15T07:54:43;5.60;;;2.63;;
1404;SDS011;697;51.114;6.542;2022-11-15T07:57:11;4.23;;;2.30;;
1404;SDS011;697;51.114;6.542;2022-11-15T07:59:38;5.10;;;2.33;;
1404;SDS011;697;51.114;6.542;2022-11-15T08:02:05;5.93;;;3.60;;
1404;SDS011;697;51.114;6.542;2022-11-15T08:04:32;3.60;;;2.60;;
1404;SDS011;697;51.114;6.542;2022-11-15T08:06:58;3.80;;;2.13;;
1404;SDS011;697;51.114;6.542;2022-11-15T08:09:25;4.40;;;2.20;;
1404;SDS011;697;51.114;6.542;2022-11-15T08:11:52;4.03;;;2.40;;
1404;SDS011;697;51.114;6.542;2022-11-15T08:14:20;7.37;;;2.93;;
1404;SDS011;697;51.114;6.542;2022-11-15T08:16:47;3.40;;;2.50;;
1404;SDS011;697;51.114;6.542;2022-11-15T08:19:14;5.37;;;3.30;;
1404;SDS011;697;51.114;6.542;2022-11-15T08:21:40;6.27;;;2.53;;
1404;SDS011;697;51.114;6.542;2022-11-15T08:24:08;6.67;;;3.23;;
1404;SDS011;697;51.114;6.542;2022-11-15T08:26:35;8.97;;;3.83;;
1404;SDS011;697;51.114;6.542;2022-11-15T08:29:02;7.83;;;3.07;;
1404;SDS011;697;51.114;6.542;2022-11-15T08:31:30;7.57;;;3.10;;
1404;SDS011;697;51.114;6.542;2022-11-15T08:33:57;7.73;;;2.50;;
1404;SDS011;697;51.114;6.542;2022-11-15T08:36:24;4.80;;;2.63;;
1404;SDS011;697;51.114;6.542;2022-11-15T08:38:50;6.27;;;2.63;;
1404;SDS011;697;51.114;6.542;2022-11-15T08:41:19;8.93;;;2.47;;
1404;SDS011;697;51.114;6.542;2022-11-15T08:43:50;6.30;;;3.00;;
1404;SDS011;697;51.114;6.542;2022-11-15T08:46:17;5.10;;;2.67;;
1404;SDS011;697;51.114;6.542;2022-11-15T08:48:45;2.20;;;1.60;;
1404;SDS011;697;51.114;6.542;2022-11-15T08:51:12;3.17;;;2.00;;
1404;SDS011;697;51.114;6.542;2022-11-15T08:53:39;3.03;;;1.70;;
1404;SDS011;697;51.114;6.542;2022-11-15T08:56:06;2.10;;;1.80;;
1404;SDS011;697;51.114;6.542;2022-11-15T08:58:33;2.37;;;1.60;;
1404;SDS011;697;51.114;6.542;2022-11-15T09:01:00;3.27;;;1.63;;
1404;SDS011;697;51.114;6.542;2022-11-15T09:03:27;2.43;;;1.10;;
1404;SDS011;697;51.114;6.542;2022-11-15T09:05:56;4.73;;;1.10;;
1404;SDS011;697;51.114;6.542;2022-11-15T09:08:23;2.80;;;1.30;;
1404;SDS011;697;51.114;6.542;2022-11-15T09:10:51;2.90;;;1.40;;
1404;SDS011;697;51.114;6.542;2022-11-15T09:13:17;1.13;;;1.00;;
1404;SDS011;697;51.114;6.542;2022-11-15T09:15:44;4.17;;;1.27;;
1404;SDS011;697;51.114;6.542;2022-11-15T09:18:11;1.97;;;1.67;;
1404;SDS011;697;51.114;6.542;2022-11-15T09:20:41;4.30;;;1.00;;
1404;SDS011;697;51.114;6.542;2022-11-15T09:23:09;2.50;;;1.67;;
1404;SDS011;697;51.114;6.542;2022-11-15T09:25:35;1.83;;;1.50;;
1404;SDS011;697;51.114;6.542;2022-11-15T09:28:05;2.70;;;1.80;;
1404;SDS011;697;51.114;6.542;2022-11-15T09:30:32;4.37;;;1.43;;
1404;SDS011;697;51.114;6.542;2022-11-15T09:32:59;3.03;;;1.30;;
1404;SDS011;697;51.114;6.542;2022-11-15T09:35:33;3.33;;;1.60;;
1404;SDS011;697;51.114;6.542;2022-11-15T09:37:59;2.90;;;1.47;;
1404;SDS011;697;51.114;6.542;2022-11-15T09:40:29;1.90;;;1.60;;
1404;SDS011;697;51.114;6.542;2022-11-15T09:43:05;2.77;;;1.63;;
1404;SDS011;697;51.114;6.542;2022-11-15T09:45:53;1.70;;;1.20;;
1404;SDS011;697;51.114;6.542;2022-11-15T09:48:34;3.53;;;1.47;;
1404;SDS011;697;51.114;6.542;2022-11-15T09:51:17;2.20;;;1.10;;
1404;SDS011;697;51.114;6.542;2022-11-15T09:53:51;1.37;;;1.07;;
1404;SDS011;697;51.114;6.542;2022-11-15T09:56:26;0.83;;;0.70;;
1404;SDS011;697;51.114;6.542;2022-11-15T09:58:58;1.47;;;0.93;;
1404;SDS011;697;51.114;6.542;2022-11-15T10:01:35;2.97;;;0.97;;
1404;SDS011;697;51.114;6.542;2022-11-15T10:04:07;1.57;;;0.87;;
1404;SDS011;697;51.114;6.542;2022-11-15T10:06:34;2.60;;;0.93;;
1404;SDS011;697;51.114;6.542;2022-11-15T10:09:05;3.20;;;1.00;;
1404;SDS011;697;51.114;6.542;2022-11-15T10:11:42;2.47;;;1.00;;
1404;SDS011;697;51.114;6.542;2022-11-15T10:14:10;2.93;;;0.90;;
1404;SDS011;697;51.114;6.542;2022-11-15T10:19:34;3.50;;;1.13;;
1404;SDS011;697;51.114;6.542;2022-11-15T10:22:11;1.87;;;1.33;;
1404;SDS011;697;51.114;6.542;2022-11-15T10:24:44;4.93;;;1.13;;
1404;SDS011;697;51.114;6.542;2022-11-15T10:27:14;5.50;;;0.80;;
1404;SDS011;697;51.114;6.542;2022-11-15T10:29:43;1.30;;;0.77;;
1404;SDS011;697;51.114;6.542;2022-11-15T10:32:11;3.70;;;0.93;;
1404;SDS011;697;51.114;6.542;2022-11-15T10:34:39;5.20;;;1.00;;
1404;SDS011;697;51.114;6.542;2022-11-15T10:37:05;1.90;;;1.10;;
1404;SDS011;697;51.114;6.542;2022-11-15T10:39:32;2.10;;;0.70;;
1404;SDS011;697;51.114;6.542;2022-11-15T10:42:03;1.87;;;1.10;;
1404;SDS011;697;51.114;6.542;2022-11-15T10:44:43;2.30;;;1.00;;
1404;SDS011;697;51.114;6.542;2022-11-15T10:47:20;3.67;;;1.50;;
1404;SDS011;697;51.114;6.542;2022-11-15T10:49:53;5.33;;;1.10;;
1404;SDS011;697;51.114;6.542;2022-11-15T10:52:25;2.90;;;0.67;;
1404;SDS011;697;51.114;6.542;2022-11-15T10:54:54;4.83;;;0.83;;
1404;SDS011;697;51.114;6.542;2022-11-15T10:57:25;1.40;;;1.30;;
1404;SDS011;697;51.114;6.542;2022-11-15T10:59:55;2.60;;;1.07;;
1404;SDS011;697;51.114;6.542;2022-11-15T11:02:31;1.87;;;1.20;;
1404;SDS011;697;51.114;6.542;2022-11-15T11:05:01;1.57;;;0.83;;
1404;SDS011;697;51.114;6.542;2022-11-15T11:07:30;3.23;;;1.10;;
1404;SDS011;697;51.114;6.542;2022-11-15T11:09:58;4.10;;;1.10;;
1404;SDS011;697;51.114;6.542;2022-11-15T11:12:29;2.50;;;1.00;;
1404;SDS011;697;51.114;6.542;2022-11-15T11:14:57;1.87;;;0.80;;
1404;SDS011;697;51.114;6.542;2022-11-15T11:17:32;2.80;;;0.73;;
1404;SDS011;697;51.114;6.542;2022-11-15T11:20:09;3.43;;;1.03;;
1404;SDS011;697;51.114;6.542;2022-11-15T11:22:45;3.93;;;0.90;;
1404;SDS011;697;51.114;6.542;2022-11-15T11:25:25;1.47;;;0.70;;
1404;SDS011;697;51.114;6.542;2022-11-15T11:28:05;1.57;;;0.50;;
1404;SDS011;697;51.114;6.542;2022-11-15T11:30:58;1.47;;;0.83;;
1404;SDS011;697;51.114;6.542;2022-11-15T11:33:33;2.80;;;0.90;;
1404;SDS011;697;51.114;6.542;2022-11-15T11:36:06;2.50;;;0.63;;
1404;SDS011;697;51.114;6.542;2022-11-15T11:38:44;4.07;;;1.20;;
1404;SDS011;697;51.114;6.542;2022-11-15T11:41:23;2.63;;;0.80;;
1404;SDS011;697;51.114;6.542;2022-11-15T11:44:07;4.10;;;1.33;;
1404;SDS011;697;51.114;6.542;2022-11-15T11:46:47;3.40;;;1.10;;
1404;SDS011;697;51.114;6.542;2022-11-15T11:49:16;4.97;;;1.20;;
1404;SDS011;697;51.114;6.542;2022-11-15T11:51:49;2.00;;;0.83;;
1404;SDS011;697;51.114;6.542;2022-11-15T11:54:20;4.70;;;1.40;;
1404;SDS011;697;51.114;6.542;2022-11-15T11:56:52;3.83;;;1.00;;
1404;SDS011;697;51.114;6.542;2022-11-15T11:59:25;2.00;;;0.70;;
1404;SDS011;697;51.114;6.542;2022-11-15T12:01:58;2.73;;;0.90;;
1404;SDS011;697;51.114;6.542;2022-11-15T12:04:36;3.20;;;1.20;;
1404;SDS011;697;51.114;6.542;2022-11-15T12:07:07;4.30;;;1.27;;
1404;SDS011;697;51.114;6.542;2022-11-15T12:09:41;2.93;;;1.00;;
1404;SDS011;697;51.114;6.542;2022-11-15T12:12:11;4.73;;;1.03;;
1404;SDS011;697;51.114;6.542;2022-11-15T12:14:45;2.80;;;1.23;;
1404;SDS011;697;51.114;6.542;2022-11-15T12:17:16;2.43;;;1.10;;
1404;SDS011;697;51.114;6.542;2022-11-15T12:19:47;3.87;;;1.30;;
1404;SDS011;697;51.114;6.542;2022-11-15T12:22:16;2.80;;;1.00;;
1404;SDS011;697;51.114;6.542;2022-11-15T12:24:48;2.43;;;0.90;;
1404;SDS011;697;51.114;6.542;2022-11-15T12:27:26;6.83;;;2.80;;
1404;SDS011;697;51.114;6.542;2022-11-15T12:30:00;4.20;;;2.93;;
1404;SDS011;697;51.114;6.542;2022-11-15T12:32:31;2.83;;;1.83;;
1404;SDS011;697;51.114;6.542;2022-11-15T12:35:00;2.10;;;0.97;;
1404;SDS011;697;51.114;6.542;2022-11-15T12:37:33;3.33;;;0.87;;
1404;SDS011;697;51.114;6.542;2022-11-15T12:40:20;1.27;;;0.90;;
1404;SDS011;697;51.114;6.542;2022-11-15T12:42:58;2.27;;;1.00;;
1404;SDS011;697;51.114;6.542;2022-11-15T12:45:29;1.77;;;1.27;;
1404;SDS011;697;51.114;6.542;2022-11-15T12:48:21;4.97;;;1.03;;
1404;SDS011;697;51.114;6.542;2022-11-15T12:51:23;2.87;;;1.07;;
1404;SDS011;697;51.114;6.542;2022-11-15T12:54:49;1.60;;;0.70;;
1404;SDS011;697;51.114;6.542;2022-11-15T12:57:34;2.33;;;1.10;;
1404;SDS011;697;51.114;6.542;2022-11-15T13:00:20;3.93;;;1.10;;
1404;SDS011;697;51.114;6.542;2022-11-15T13:03:22;3.20;;;1.00;;
1404;SDS011;697;51.114;6.542;2022-11-15T13:05:52;3.83;;;2.10;;
1404;SDS011;697;51.114;6.542;2022-11-15T13:08:38;3.57;;;2.13;;
1404;SDS011;697;51.114;6.542;2022-11-15T13:17:10;2.10;;;1.07;;
1404;SDS011;697;51.114;6.542;2022-11-15T13:20:06;2.80;;;1.07;;
1404;SDS011;697;51.114;6.542;2022-11-15T13:22:45;6.07;;;0.90;;
1404;SDS011;697;51.114;6.542;2022-11-15T13:25:25;2.87;;;0.90;;
1404;SDS011;697;51.114;6.542;2022-11-15T13:28:09;3.97;;;1.33;;
1404;SDS011;697;51.114;6.542;2022-11-15T13:30:48;4.37;;;1.10;;
1404;SDS011;697;51.114;6.542;2022-11-15T13:33:17;2.77;;;0.90;;
1404;SDS011;697;51.114;6.542;2022-11-15T13:35:48;2.60;;;1.30;;
1404;SDS011;697;51.114;6.542;2022-11-15T13:38:18;1.90;;;1.17;;
1404;SDS011;697;51.114;6.542;2022-11-15T13:40:51;2.83;;;1.60;;
1404;SDS011;697;51.114;6.542;2022-11-15T13:43:23;3.37;;;1.40;;
1404;SDS011;697;51.114;6.542;2022-11-15T13:46:03;3.17;;;1.60;;
1404;SDS011;697;51.114;6.542;2022-11-15T13:48:34;2.07;;;0.90;;
1404;SDS011;697;51.114;6.542;2022-11-15T13:51:03;4.97;;;1.13;;
1404;SDS011;697;51.114;6.542;2022-11-15T13:53:34;3.67;;;1.20;;
1404;SDS011;697;51.114;6.542;2022-11-15T13:56:05;2.50;;;1.00;;
1404;SDS011;697;51.114;6.542;2022-11-15T13:58:32;2.60;;;1.03;;
1404;SDS011;697;51.114;6.542;2022-11-15T14:01:00;3.10;;;0.97;;
1404;SDS011;697;51.114;6.542;2022-11-15T14:03:29;5.00;;;1.57;;
1404;SDS011;697;51.114;6.542;2022-11-15T14:06:03;3.57;;;1.10;;
1404;SDS011;697;51.114;6.542;2022-11-15T14:08:36;5.13;;;1.17;;
1404;SDS011;697;51.114;6.542;2022-11-15T14:11:14;3.23;;;1.40;;
1404;SDS011;697;51.114;6.542;2022-11-15T14:13:58;3.67;;;1.50;;
1404;SDS011;697;51.114;6.542;2022-11-15T14:16:32;3.93;;;1.30;;
1404;SDS011;697;51.114;6.542;2022-11-15T14:19:00;2.77;;;1.90;;
1404;SDS011;697;51.114;6.542;2022-11-15T14:21:29;9.33;;;3.57;;
1404;SDS011;697;51.114;6.542;2022-11-15T14:26:41;2.87;;;1.73;;
1404;SDS011;697;51.114;6.542;2022-11-15T14:29:24;3.27;;;2.53;;
1404;SDS011;697;51.114;6.542;2022-11-15T14:31:51;5.33;;;1.80;;
1404;SDS011;697;51.114;6.542;2022-11-15T14:34:18;5.13;;;1.60;;
1404;SDS011;697;51.114;6.542;2022-11-15T14:36:47;2.70;;;1.57;;
1404;SDS011;697;51.114;6.542;2022-11-15T14:39:14;4.10;;;2.10;;
1404;SDS011;697;51.114;6.542;2022-11-15T14:41:41;3.50;;;2.00;;
1404;SDS011;697;51.114;6.542;2022-11-15T14:44:09;3.83;;;2.20;;
1404;SDS011;697;51.114;6.542;2022-11-15T14:46:37;3.47;;;1.63;;
1404;SDS011;697;51.114;6.542;2022-11-15T14:49:03;3.70;;;2.00;;
1404;SDS011;697;51.114;6.542;2022-11-15T14:51:30;3.00;;;2.17;;
1404;SDS011;697;51.114;6.542;2022-11-15T14:53:59;3.30;;;2.80;;
1404;SDS011;697;51.114;6.542;2022-11-15T14:56:26;3.23;;;2.20;;
1404;SDS011;697;51.114;6.542;2022-11-15T14:58:53;4.37;;;2.60;;
1404;SDS011;697;51.114;6.542;2022-11-15T15:01:20;2.77;;;2.37;;
1404;SDS011;697;51.114;6.542;2022-11-15T15:03:49;3.80;;;3.03;;
1404;SDS011;697;51.114;6.542;2022-11-15T15:06:19;8.00;;;2.80;;
1404;SDS011;697;51.114;6.542;2022-11-15T15:08:46;4.70;;;3.03;;
1404;SDS011;697;51.114;6.542;2022-11-15T15:11:18;5.47;;;2.53;;
1404;SDS011;697;51.114;6.542;2022-11-15T15:13:48;2.60;;;2.27;;
1404;SDS011;697;51.114;6.542;2022-11-15T15:16:15;3.63;;;2.90;;
1404;SDS011;697;51.114;6.542;2022-11-15T15:18:42;2.77;;;2.40;;
1404;SDS011;697;51.114;6.542;2022-11-15T15:21:14;5.27;;;2.73;;
1404;SDS011;697;51.114;6.542;2022-11-15T15:23:46;3.43;;;2.50;;
1404;SDS011;697;51.114;6.542;2022-11-15T15:26:12;3.87;;;3.30;;
1404;SDS011;697;51.114;6.542;2022-11-15T15:28:40;4.30;;;3.00;;
1404;SDS011;697;51.114;6.542;2022-11-15T15:31:07;5.13;;;3.33;;
1404;SDS011;697;51.114;6.542;2022-11-15T15:33:34;4.07;;;3.47;;
1404;SDS011;697;51.114;6.542;2022-11-15T15:36:01;4.97;;;2.77;;
1404;SDS011;697;51.114;6.542;2022-11-15T15:38:28;8.70;;;3.23;;
1404;SDS011;697;51.114;6.542;2022-11-15T15:40:55;3.90;;;2.77;;
1404;SDS011;697;51.114;6.542;2022-11-15T15:43:24;4.13;;;3.83;;
1404;SDS011;697;51.114;6.542;2022-11-15T15:45:52;3.87;;;2.67;;
1404;SDS011;697;51.114;6.542;2022-11-15T15:48:19;4.20;;;3.17;;
1404;SDS011;697;51.114;6.542;2022-11-15T15:50:46;4.50;;;3.10;;
1404;SDS011;697;51.114;6.542;2022-11-15T15:53:14;3.87;;;2.90;;
1404;SDS011;697;51.114;6.542;2022-11-15T15:55:42;3.37;;;3.07;;
1404;SDS011;697;51.114;6.542;2022-11-15T15:58:09;6.50;;;2.50;;
1404;SDS011;697;51.114;6.542;2022-11-15T16:00:35;4.33;;;3.10;;